Mount Ayr, Indiana
Current Conditions -  °F | °C
As of 2:55 AM on Saturday 22 Nov 2014 (Local Time) from KRZL Reporting Station
Unknown Precip Unknown Precip  
Wind Chill: 26°   Ceiling: 1600
Heat Index: 32°   Visibility: 5mi
Dew Point: 32°   Wind: 6mph
Humidity: 100%   Direction: 170°S
Pressure: 30.17"   Gusts: NA
Location:  40.95°N, 87.3°W
Report Text: KRZL 220855Z AUTO 17005KT 5SM UP OVC016 00/00 A3017 RMK AO2 P0004
Loading
Personal Weather Stations






























Interactive Weather Map New forecast layout! Learn more

10-Day Weather Forecast

Advertisements
Track Severe Weather on mobile